Time;durP1;ratioP1;P1;durP2;ratioP2;P2;SDS_P1;SDS_P2;PMS_P1;PMS_P2;Temp;Humidity;BMP_temperature;BMP_pressure;BME280_temperature;BME280_humidity;BME280_pressure;Samples;Min_cycle;Max_cycle;Signal;HPM_P1;HPM_P2
2022/11/08 00:03:30;;;;;;;12.93;3.38;;;13.30;99.90;;;;;;5057545;28;20044;-78
2022/11/08 00:14:08;;;;;;;14.60;3.85;;;13.30;99.90;;;;;;5064600;28;20051;-78
2022/11/08 00:16:34;;;;;;;11.20;3.38;;;13.30;99.90;;;;;;5087832;28;20041;-78
2022/11/08 00:19:00;;;;;;;11.45;2.90;;;13.30;99.90;;;;;;5063608;28;20044;-79
2022/11/08 00:21:26;;;;;;;13.10;3.58;;;13.30;99.90;;;;;;5053232;28;20044;-78
2022/11/08 00:23:52;;;;;;;11.85;3.15;;;13.30;99.90;;;;;;5063472;28;20560;-78
2022/11/08 00:26:18;;;;;;;12.90;3.55;;;13.30;99.90;;;;;;5059174;28;20049;-78
2022/11/08 00:28:44;;;;;;;13.98;3.78;;;13.30;99.90;;;;;;5061383;28;20480;-78
2022/11/08 00:31:09;;;;;;;13.65;3.67;;;13.30;99.90;;;;;;5094045;28;20125;-78
2022/11/08 00:33:36;;;;;;;11.95;3.30;;;13.30;99.90;;;;;;5065451;28;20127;-78
2022/11/08 00:36:03;;;;;;;9.40;2.97;;;13.30;99.90;;;;;;5064150;28;20040;-78
2022/11/08 00:38:29;;;;;;;14.15;3.60;;;13.20;99.90;;;;;;5097283;28;20476;-78
2022/11/08 00:40:54;;;;;;;15.27;3.97;;;13.20;99.90;;;;;;5070647;28;20050;-78
2022/11/08 00:43:20;;;;;;;11.35;3.50;;;13.20;99.90;;;;;;5076681;28;20055;-78
2022/11/08 00:45:46;;;;;;;12.32;3.22;;;13.20;99.90;;;;;;5072524;28;20044;-79
2022/11/08 00:48:12;;;;;;;9.23;3.13;;;13.20;99.90;;;;;;5064688;28;20163;-78
2022/11/08 00:50:39;;;;;;;13.38;3.28;;;13.20;99.90;;;;;;5051954;28;20138;-79
2022/11/08 00:53:05;;;;;;;11.48;3.28;;;13.20;99.90;;;;;;5065471;28;20044;-78
2022/11/08 00:55:30;;;;;;;14.07;3.47;;;13.10;99.90;;;;;;5064997;28;20040;-77
2022/11/08 00:57:56;;;;;;;13.23;3.58;;;13.10;99.90;;;;;;5067702;28;20479;-77
2022/11/08 01:00:22;;;;;;;13.85;3.70;;;13.10;99.90;;;;;;5065036;28;20079;-77
2022/11/08 01:02:48;;;;;;;10.65;3.22;;;13.20;99.90;;;;;;5075295;28;20135;-78
2022/11/08 01:05:13;;;;;;;12.85;3.33;;;13.10;99.90;;;;;;5058231;28;20040;-77
2022/11/08 01:07:39;;;;;;;11.38;3.50;;;13.10;99.90;;;;;;5066647;28;20052;-77
2022/11/08 01:10:05;;;;;;;11.23;3.47;;;13.10;99.90;;;;;;5069865;28;20037;-78
2022/11/08 01:12:31;;;;;;;11.27;3.47;;;13.10;99.90;;;;;;5068108;28;20142;-78
2022/11/08 01:14:56;;;;;;;13.88;3.40;;;13.10;99.90;;;;;;5069078;28;20119;-78
2022/11/08 01:17:22;;;;;;;13.95;3.72;;;13.00;99.90;;;;;;5073495;28;20070;-78
2022/11/08 01:19:48;;;;;;;10.23;3.35;;;13.00;99.90;;;;;;5085374;28;20072;-78
2022/11/08 01:22:13;;;;;;;9.10;3.13;;;13.00;99.90;;;;;;5053000;28;20055;-78
2022/11/08 01:24:39;;;;;;;9.45;2.80;;;13.00;99.90;;;;;;5075181;28;20044;-78
2022/11/08 01:27:05;;;;;;;11.30;3.38;;;12.90;99.90;;;;;;5078510;28;20345;-78
2022/11/08 01:29:32;;;;;;;11.77;3.22;;;13.00;99.90;;;;;;5073218;28;20052;-77
2022/11/08 01:31:57;;;;;;;13.48;3.85;;;12.90;99.90;;;;;;5082820;28;20057;-78
2022/11/08 01:34:23;;;;;;;12.65;3.90;;;12.90;99.90;;;;;;5070047;28;20040;-77
2022/11/08 01:36:48;;;;;;;10.52;3.05;;;12.90;99.90;;;;;;5070713;28;20048;-78
2022/11/08 01:39:15;;;;;;;13.98;3.42;;;12.80;99.90;;;;;;5072685;28;20032;-77
2022/11/08 01:41:40;;;;;;;11.13;3.50;;;12.80;99.90;;;;;;5078184;28;20075;-77
2022/11/08 01:44:14;;;;;;;12.00;3.35;;;12.80;99.90;;;;;;5074873;28;20452;-77
2022/11/08 01:46:44;;;;;;;9.90;3.10;;;12.80;99.90;;;;;;5077759;28;20040;-78
2022/11/08 01:49:14;;;;;;;12.32;3.42;;;12.80;99.90;;;;;;5068061;28;20052;-77
2022/11/08 01:51:52;;;;;;;10.55;3.40;;;12.80;99.90;;;;;;5050752;28;20048;-77
2022/11/08 01:54:25;;;;;;;12.98;3.70;;;12.80;99.90;;;;;;5075518;28;20050;-77
2022/11/08 01:56:51;;;;;;;13.30;3.45;;;12.80;99.90;;;;;;5068836;28;20093;-76
2022/11/08 01:59:18;;;;;;;11.48;3.50;;;12.80;99.90;;;;;;5075476;28;20045;-77
2022/11/08 02:01:44;;;;;;;9.88;3.20;;;12.80;99.90;;;;;;5055742;28;20044;-77
2022/11/08 02:04:11;;;;;;;14.63;3.50;;;12.80;99.90;;;;;;5055205;28;20171;-77
2022/11/08 02:06:37;;;;;;;9.70;3.40;;;12.80;99.90;;;;;;5066631;28;20043;-78
2022/11/08 02:09:07;;;;;;;11.47;3.53;;;12.80;99.90;;;;;;5063345;28;20573;-76
2022/11/08 02:11:34;;;;;;;10.52;3.50;;;12.80;99.90;;;;;;5075396;28;20044;-81
2022/11/08 02:14:01;;;;;;;9.50;3.35;;;12.80;99.90;;;;;;5069926;28;20510;-81
2022/11/08 02:16:26;;;;;;;10.93;3.03;;;12.80;99.90;;;;;;5083389;28;20058;-81
2022/11/08 02:18:52;;;;;;;15.88;3.78;;;12.80;99.90;;;;;;5072136;28;20044;-81
2022/11/08 02:21:36;;;;;;;13.48;3.40;;;12.80;99.90;;;;;;5063772;28;20087;-81
2022/11/08 02:24:12;;;;;;;12.43;3.10;;;12.80;99.90;;;;;;5057228;28;20112;-81
2022/11/08 02:26:38;;;;;;;9.93;3.40;;;12.80;99.90;;;;;;5077848;28;20047;-81
2022/11/08 02:29:23;;;;;;;11.20;3.40;;;12.80;99.90;;;;;;5048417;28;20057;-81
2022/11/08 02:31:49;;;;;;;8.82;2.97;;;12.80;99.90;;;;;;5053995;28;20040;-81
2022/11/08 02:34:14;;;;;;;12.00;3.33;;;12.80;99.90;;;;;;5076159;28;20041;-81
2022/11/08 02:36:42;;;;;;;12.50;3.15;;;12.80;99.90;;;;;;5073271;28;20047;-82
2022/11/08 02:39:08;;;;;;;6.72;2.80;;;12.70;99.90;;;;;;5076241;28;20067;-81
2022/11/08 02:41:34;;;;;;;11.50;3.30;;;12.70;99.90;;;;;;5067309;28;20404;-82
2022/11/08 02:43:59;;;;;;;9.77;3.05;;;12.70;99.90;;;;;;5058328;28;20411;-81
2022/11/08 02:46:25;;;;;;;10.15;3.20;;;12.60;99.90;;;;;;5077012;28;20044;-81
2022/11/08 02:48:51;;;;;;;12.55;3.65;;;12.60;99.90;;;;;;5087609;28;20036;-81
2022/11/08 02:51:16;;;;;;;8.75;2.83;;;12.60;99.90;;;;;;5086361;28;20123;-81
2022/11/08 02:53:42;;;;;;;8.05;2.80;;;12.60;99.90;;;;;;5104584;28;20044;-81
2022/11/08 02:56:07;;;;;;;14.82;3.58;;;12.50;99.90;;;;;;5077691;28;20040;-81
2022/11/08 02:58:33;;;;;;;9.35;3.05;;;12.60;99.90;;;;;;5065883;28;20048;-81
2022/11/08 03:00:59;;;;;;;14.23;3.47;;;12.50;99.90;;;;;;5074593;28;20441;-81
2022/11/08 03:03:24;;;;;;;10.73;3.03;;;12.50;99.90;;;;;;5070150;28;20029;-81
2022/11/08 03:05:50;;;;;;;9.05;2.72;;;12.60;99.90;;;;;;5062651;28;20041;-81
2022/11/08 03:08:15;;;;;;;8.55;2.70;;;12.50;99.90;;;;;;5057173;28;20527;-81
2022/11/08 03:10:41;;;;;;;12.25;2.90;;;12.50;99.90;;;;;;5100333;28;20048;-81
2022/11/08 03:13:07;;;;;;;7.53;3.00;;;12.50;99.90;;;;;;5087337;28;20060;-81
2022/11/08 03:15:33;;;;;;;9.48;2.75;;;12.50;99.90;;;;;;5056155;28;20200;-81
2022/11/08 03:18:01;;;;;;;7.20;2.88;;;12.40;99.90;;;;;;5081747;28;20468;-81
2022/11/08 03:20:26;;;;;;;9.57;3.00;;;12.40;99.90;;;;;;5067755;28;20603;-81
2022/11/08 03:23:04;;;;;;;9.43;3.08;;;12.50;99.90;;;;;;5049251;28;20124;-81
2022/11/08 03:25:30;;;;;;;8.27;3.30;;;12.40;99.90;;;;;;5057113;28;20056;-81
2022/11/08 03:28:04;;;;;;;11.45;3.33;;;12.40;99.90;;;;;;5069712;28;20044;-82
2022/11/08 03:30:30;;;;;;;13.52;4.10;;;12.40;99.90;;;;;;5034454;28;1066670;-81
2022/11/08 03:32:56;;;;;;;12.20;3.90;;;12.30;99.90;;;;;;5054072;28;20048;-81
2022/11/08 03:35:21;;;;;;;12.15;3.67;;;12.30;99.90;;;;;;5059153;28;20475;-81
2022/11/08 03:37:51;;;;;;;12.52;4.00;;;12.30;99.90;;;;;;5068317;28;20036;-81
2022/11/08 03:40:17;;;;;;;10.95;4.00;;;12.30;99.90;;;;;;5069402;28;20062;-80
2022/11/08 03:42:43;;;;;;;12.25;4.78;;;12.20;99.90;;;;;;5101463;28;20086;-82
2022/11/08 03:45:10;;;;;;;13.27;5.40;;;12.20;99.90;;;;;;5072197;28;20082;-81
2022/11/08 03:47:41;;;;;;;14.13;7.03;;;12.20;99.90;;;;;;5064783;28;20044;-81
2022/11/08 03:50:07;;;;;;;11.88;6.70;;;12.20;99.90;;;;;;5070857;28;20484;-80
2022/11/08 03:52:43;;;;;;;12.95;5.88;;;12.20;99.90;;;;;;5069000;28;20048;-81
2022/11/08 03:55:09;;;;;;;14.35;5.70;;;12.20;99.90;;;;;;5068670;28;20394;-81
2022/11/08 03:57:36;;;;;;;11.10;5.30;;;12.10;99.90;;;;;;5063686;28;20068;-81
2022/11/08 04:00:04;;;;;;;13.10;4.95;;;12.10;99.90;;;;;;5069442;28;20047;-81
2022/11/08 04:02:29;;;;;;;;;;;12.10;99.90;;;;;;5068756;28;20057;-81
2022/11/08 04:04:55;;;;;;;11.82;4.50;;;12.10;99.90;;;;;;5051906;28;20014;-81
2022/11/08 04:07:20;;;;;;;12.65;5.18;;;12.10;99.90;;;;;;5058519;28;20052;-81
2022/11/08 04:09:46;;;;;;;12.18;4.55;;;12.00;99.90;;;;;;5066832;28;20037;-81
2022/11/08 04:15:14;;;;;;;12.80;4.40;;;12.10;99.90;;;;;;5076599;28;20049;-81
2022/11/08 04:23:09;;;;;;;11.70;3.75;;;12.00;99.90;;;;;;5061021;28;20088;-81
2022/11/08 04:25:35;;;;;;;12.27;4.18;;;12.00;99.90;;;;;;5064016;28;20101;-81
2022/11/08 04:28:01;;;;;;;10.57;3.50;;;12.00;99.90;;;;;;5071447;28;20052;-81
2022/11/08 04:30:26;;;;;;;11.18;4.05;;;12.00;99.90;;;;;;5052129;28;20053;-81
2022/11/08 04:32:52;;;;;;;8.60;3.72;;;12.00;99.90;;;;;;5064264;28;20094;-81
2022/11/08 04:35:18;;;;;;;12.35;4.50;;;12.00;99.90;;;;;;5066702;28;20178;-81
2022/11/08 04:37:44;;;;;;;11.82;4.20;;;12.00;99.90;;;;;;5063065;28;20696;-81
2022/11/08 04:40:10;;;;;;;10.45;3.85;;;12.10;99.90;;;;;;5060731;28;20040;-81
2022/11/08 04:42:36;;;;;;;11.98;3.97;;;12.00;99.90;;;;;;5073765;28;20036;-81
2022/11/08 04:45:04;;;;;;;12.77;4.05;;;12.00;99.90;;;;;;5069244;28;20092;-77
2022/11/08 04:47:30;;;;;;;11.55;3.97;;;12.00;99.90;;;;;;5047324;28;20726;-77
2022/11/08 04:49:55;;;;;;;12.05;3.90;;;12.00;99.90;;;;;;5054137;28;20135;-77
2022/11/08 04:52:21;;;;;;;10.48;3.33;;;12.00;99.90;;;;;;5083114;28;20048;-77
2022/11/08 04:54:46;;;;;;;11.70;3.15;;;12.00;99.90;;;;;;5091834;28;20114;-77
2022/11/08 04:57:12;;;;;;;10.38;3.33;;;12.00;99.90;;;;;;5045967;28;20044;-77
2022/11/08 04:59:38;;;;;;;8.35;3.50;;;11.90;99.90;;;;;;5074205;28;20064;-77
2022/11/08 05:02:04;;;;;;;11.95;3.78;;;11.90;99.90;;;;;;5066398;28;20044;-77
2022/11/08 05:04:30;;;;;;;11.07;4.03;;;11.90;99.90;;;;;;5066341;28;20051;-77
2022/11/08 05:06:56;;;;;;;9.90;3.70;;;11.90;99.90;;;;;;5047689;28;20052;-77
2022/11/08 05:09:21;;;;;;;10.07;3.45;;;11.90;99.90;;;;;;5062230;28;20087;-77
2022/11/08 05:11:47;;;;;;;11.43;3.75;;;11.90;99.90;;;;;;5066872;28;20070;-77
2022/11/08 05:14:13;;;;;;;9.00;3.70;;;11.70;99.90;;;;;;5083101;28;20036;-77
2022/11/08 05:16:38;;;;;;;11.95;3.80;;;11.80;99.90;;;;;;5065374;28;20111;-78
2022/11/08 05:19:04;;;;;;;12.93;4.07;;;11.80;99.90;;;;;;5064518;28;20055;-77
2022/11/08 05:24:16;;;;;;;11.02;4.40;;;11.80;99.90;;;;;;5063596;28;20041;-77
2022/11/08 05:26:44;;;;;;;12.90;4.57;;;11.80;99.90;;;;;;5070724;28;20079;-77
2022/11/08 05:29:10;;;;;;;12.35;4.22;;;11.70;99.90;;;;;;5057385;28;20059;-77
2022/11/08 05:31:36;;;;;;;11.15;3.65;;;11.70;99.90;;;;;;5063684;28;20093;-77
2022/11/08 05:34:02;;;;;;;10.82;3.88;;;11.70;99.90;;;;;;5061103;28;20068;-78
2022/11/08 05:36:28;;;;;;;12.50;4.03;;;11.70;99.90;;;;;;5064869;28;20464;-77
2022/11/08 05:38:54;;;;;;;10.70;4.22;;;11.70;99.90;;;;;;5055585;28;20045;-77
2022/11/08 05:41:21;;;;;;;11.80;3.90;;;11.70;99.90;;;;;;5061868;28;20040;-77
2022/11/08 05:43:49;;;;;;;10.30;4.15;;;11.70;99.90;;;;;;5057442;28;20113;-77
2022/11/08 05:46:17;;;;;;;9.63;3.70;;;11.70;99.90;;;;;;5069943;28;20067;-77
2022/11/08 05:48:43;;;;;;;11.15;4.32;;;11.70;99.90;;;;;;5064896;28;20072;-77
2022/11/08 05:51:13;;;;;;;9.85;4.20;;;11.70;99.90;;;;;;5069522;28;20083;-77
2022/11/08 05:53:39;;;;;;;11.70;4.30;;;11.60;99.90;;;;;;5065653;28;20039;-77
2022/11/08 05:56:06;;;;;;;11.73;4.03;;;11.50;99.90;;;;;;5068189;28;20043;-77
2022/11/08 05:58:33;;;;;;;11.45;4.18;;;11.50;99.90;;;;;;5077497;28;20049;-76
2022/11/08 06:01:04;;;;;;;12.82;4.70;;;11.50;99.90;;;;;;5069149;28;20074;-77
2022/11/08 06:03:30;;;;;;;11.68;4.55;;;11.50;99.90;;;;;;5058406;28;20051;-77
2022/11/08 06:06:01;;;;;;;14.68;4.68;;;11.50;99.90;;;;;;5052471;28;20052;-77
2022/11/08 06:08:26;;;;;;;12.57;4.75;;;11.40;99.90;;;;;;5064454;28;20055;-77
2022/11/08 06:10:52;;;;;;;7.82;4.30;;;11.40;99.90;;;;;;5067225;28;20044;-77
2022/11/08 06:13:18;;;;;;;10.93;4.20;;;11.40;99.90;;;;;;5053856;28;20052;-77
2022/11/08 06:15:43;;;;;;;10.48;4.13;;;11.40;99.90;;;;;;5070977;28;20391;-77
2022/11/08 06:18:09;;;;;;;10.25;4.22;;;11.40;99.90;;;;;;5074637;28;20055;-77
2022/11/08 06:20:35;;;;;;;11.18;4.13;;;11.30;99.90;;;;;;5082277;28;20044;-77
2022/11/08 06:23:01;;;;;;;13.10;4.30;;;11.30;99.90;;;;;;5064496;28;20024;-76
2022/11/08 06:25:26;;;;;;;9.18;3.80;;;11.30;99.90;;;;;;5065041;28;20089;-77
2022/11/08 06:27:52;;;;;;;8.98;4.32;;;11.30;99.90;;;;;;5063910;28;20562;-77
2022/11/08 06:30:18;;;;;;;9.52;4.38;;;11.30;99.90;;;;;;5058463;28;20053;-76
2022/11/08 06:32:43;;;;;;;10.48;4.53;;;11.20;99.90;;;;;;5068404;28;20089;-77
2022/11/08 06:35:09;;;;;;;10.50;4.03;;;11.20;99.90;;;;;;5064660;28;20420;-76
2022/11/08 06:37:35;;;;;;;10.88;4.00;;;11.20;99.90;;;;;;5068756;28;20123;-77
2022/11/08 06:40:01;;;;;;;11.20;4.32;;;11.10;99.90;;;;;;5069233;28;20047;-76
2022/11/08 06:42:26;;;;;;;9.13;3.70;;;11.20;99.90;;;;;;5075210;28;20454;-77
2022/11/08 06:44:52;;;;;;;10.00;3.78;;;11.20;99.90;;;;;;5067842;28;20037;-76
2022/11/08 06:47:17;;;;;;;11.63;3.92;;;11.20;99.90;;;;;;5067626;28;20630;-77
2022/11/08 06:49:43;;;;;;;8.90;3.58;;;11.20;99.90;;;;;;5066976;28;20118;-77
2022/11/08 06:52:09;;;;;;;11.07;3.65;;;11.20;99.90;;;;;;5061987;28;20048;-77
2022/11/08 06:54:34;;;;;;;10.50;3.25;;;11.20;99.90;;;;;;5068054;28;20059;-77
2022/11/08 06:57:01;;;;;;;9.95;3.25;;;11.20;99.90;;;;;;5072544;28;20055;-80
2022/11/08 06:59:27;;;;;;;12.38;3.70;;;11.20;99.90;;;;;;5066821;28;20132;-78
2022/11/08 07:01:53;;;;;;;10.35;3.67;;;11.20;99.90;;;;;;5055288;28;20123;-78
2022/11/08 07:04:19;;;;;;;8.75;3.30;;;11.20;99.90;;;;;;5067264;28;20433;-77
2022/11/08 07:06:45;;;;;;;8.05;3.55;;;11.30;99.90;;;;;;5069445;28;20040;-78
2022/11/08 07:09:10;;;;;;;7.97;3.05;;;11.20;99.90;;;;;;5072841;28;20041;-78
2022/11/08 07:11:36;;;;;;;10.63;3.35;;;11.20;99.90;;;;;;5068065;28;20131;-78
2022/11/08 07:14:02;;;;;;;9.32;3.15;;;11.30;99.90;;;;;;5076138;28;20040;-77
2022/11/08 07:16:28;;;;;;;8.88;3.17;;;11.30;99.90;;;;;;5090928;27;20052;-78
2022/11/08 07:18:54;;;;;;;7.38;2.90;;;11.30;99.90;;;;;;5072657;28;20028;-78
2022/11/08 07:21:21;;;;;;;8.38;3.15;;;11.30;99.90;;;;;;5065806;28;20051;-77
2022/11/08 07:23:47;;;;;;;9.43;3.35;;;11.30;99.90;;;;;;5065986;28;20045;-78
2022/11/08 07:26:13;;;;;;;8.93;2.90;;;11.30;99.90;;;;;;5064937;28;20068;-78
2022/11/08 07:28:39;;;;;;;6.13;3.13;;;11.40;99.90;;;;;;5064635;28;20154;-78
2022/11/08 07:31:06;;;;;;;9.00;3.00;;;11.40;99.90;;;;;;5052939;28;20077;-77
2022/11/08 07:33:32;;;;;;;8.23;2.95;;;11.40;99.90;;;;;;5061216;28;20068;-78
2022/11/08 07:35:59;;;;;;;10.02;3.40;;;11.40;99.90;;;;;;5061067;28;20054;-77
2022/11/08 07:38:25;;;;;;;6.87;2.70;;;11.40;99.90;;;;;;5060770;28;20399;-77
2022/11/08 07:40:57;;;;;;;7.15;3.00;;;11.50;99.90;;;;;;5064550;28;20406;-78
2022/11/08 07:43:24;;;;;;;8.93;2.90;;;11.50;99.90;;;;;;5066052;28;20041;-78
2022/11/08 07:45:57;;;;;;;9.05;2.80;;;11.50;99.90;;;;;;5082265;28;20467;-77
2022/11/08 07:48:24;;;;;;;7.50;3.00;;;11.50;99.90;;;;;;5053793;28;20964;-77
2022/11/08 07:50:50;;;;;;;6.38;2.90;;;11.50;99.90;;;;;;5094175;27;20131;-78
2022/11/08 07:53:16;;;;;;;5.90;2.70;;;11.50;99.90;;;;;;5058755;28;20047;-78
2022/11/08 07:55:43;;;;;;;7.38;2.55;;;11.60;99.90;;;;;;5065273;28;20028;-78
2022/11/08 07:58:10;;;;;;;8.18;2.90;;;11.50;99.90;;;;;;5068930;28;20047;-77
2022/11/08 08:00:37;;;;;;;9.40;2.67;;;11.60;99.90;;;;;;5073020;28;20048;-81
2022/11/08 08:03:05;;;;;;;7.40;2.97;;;11.60;99.90;;;;;;5070021;28;20590;-77
2022/11/08 08:05:34;;;;;;;8.20;2.90;;;11.60;99.90;;;;;;5067807;28;20044;-79
2022/11/08 08:08:01;;;;;;;5.18;2.70;;;11.70;99.90;;;;;;5063672;28;20092;-83
2022/11/08 08:10:28;;;;;;;7.43;2.77;;;11.60;99.90;;;;;;5068354;28;20048;-83
2022/11/08 08:12:54;;;;;;;6.90;2.95;;;11.70;99.90;;;;;;5076011;28;20754;-79
2022/11/08 08:15:22;;;;;;;7.28;3.08;;;11.70;99.90;;;;;;5078160;28;20076;-78
2022/11/08 08:17:48;;;;;;;6.55;2.67;;;11.70;99.90;;;;;;5067051;28;20044;-81
2022/11/08 08:20:13;;;;;;;8.20;3.13;;;11.80;99.90;;;;;;5075793;28;20119;-85
2022/11/08 08:22:45;;;;;;;8.38;2.85;;;11.80;99.90;;;;;;5075232;28;20515;-83
2022/11/08 08:25:12;;;;;;;5.68;2.55;;;11.80;99.90;;;;;;5079717;28;20040;-84
2022/11/08 08:27:37;;;;;;;5.78;2.55;;;11.80;99.90;;;;;;5080831;28;20036;-85
2022/11/08 08:30:04;;;;;;;8.40;2.95;;;11.90;99.90;;;;;;5088727;28;20067;-85
2022/11/08 08:32:30;;;;;;;6.15;2.53;;;11.90;99.90;;;;;;5050321;28;20508;-80
2022/11/08 08:34:55;;;;;;;7.85;2.55;;;12.00;99.90;;;;;;5047286;28;20099;-83
2022/11/08 08:37:21;;;;;;;5.82;2.35;;;12.00;99.90;;;;;;5049965;28;20728;-84
2022/11/08 08:39:47;;;;;;;6.63;2.60;;;12.10;99.90;;;;;;5066942;28;20136;-84
2022/11/08 08:42:12;;;;;;;7.07;2.60;;;12.10;99.90;;;;;;5075813;28;20037;-83
2022/11/08 08:44:38;;;;;;;7.55;2.92;;;12.10;99.90;;;;;;5073052;28;20101;-83
2022/11/08 08:47:03;;;;;;;6.70;2.70;;;12.20;99.90;;;;;;5071518;28;20110;-82
2022/11/08 08:49:29;;;;;;;5.60;2.50;;;12.20;99.90;;;;;;5074083;28;20043;-88
2022/11/08 08:51:55;;;;;;;5.95;2.30;;;12.30;99.90;;;;;;5077909;28;20047;-80
2022/11/08 08:54:20;;;;;;;6.82;2.40;;;12.30;99.90;;;;;;5075755;28;20045;-78
2022/11/08 08:56:46;;;;;;;9.50;2.42;;;12.40;99.90;;;;;;5084471;28;20040;-78
2022/11/08 08:59:13;;;;;;;6.90;2.35;;;12.40;99.90;;;;;;5088380;28;20139;-82
2022/11/08 09:01:39;;;;;;;4.88;2.20;;;12.50;99.90;;;;;;5086541;28;20043;-86
2022/11/08 09:04:05;;;;;;;4.30;2.10;;;12.50;99.90;;;;;;5097207;27;20048;-87
2022/11/08 09:06:30;;;;;;;5.30;2.38;;;12.60;99.90;;;;;;5083138;28;20086;-88
2022/11/08 09:08:56;;;;;;;6.68;2.35;;;12.60;99.90;;;;;;5080435;28;20035;-86
2022/11/08 09:11:22;;;;;;;6.70;2.50;;;12.60;99.90;;;;;;5055197;28;20103;-88
2022/11/08 09:13:47;;;;;;;6.45;2.40;;;12.70;99.90;;;;;;5083351;28;20470;-78
2022/11/08 09:16:13;;;;;;;6.40;2.47;;;12.70;99.90;;;;;;5082517;28;20050;-87
2022/11/08 09:18:39;;;;;;;7.25;2.33;;;12.80;99.90;;;;;;5078821;28;20383;-86
2022/11/08 09:21:05;;;;;;;6.43;2.42;;;12.80;99.90;;;;;;5088550;28;20040;-84
2022/11/08 09:23:31;;;;;;;6.80;2.58;;;12.80;99.90;;;;;;5068691;28;20047;-83
2022/11/08 09:25:58;;;;;;;5.65;2.60;;;12.90;99.90;;;;;;5082322;28;20044;-79
2022/11/08 09:28:23;;;;;;;6.78;2.45;;;13.00;99.90;;;;;;5076973;28;20499;-85
2022/11/08 09:30:49;;;;;;;4.65;2.28;;;13.00;99.90;;;;;;5061057;28;20053;-87
2022/11/08 09:33:14;;;;;;;6.07;2.33;;;13.00;99.90;;;;;;5047762;28;20049;-87
2022/11/08 09:35:40;;;;;;;6.72;2.63;;;13.10;99.90;;;;;;5047579;28;20040;-89
2022/11/08 09:38:06;;;;;;;5.35;2.20;;;13.10;99.90;;;;;;5047295;28;20396;-89
2022/11/08 09:40:36;;;;;;;6.90;2.38;;;13.30;99.90;;;;;;5088776;28;20096;-90
2022/11/08 09:43:34;;;;;;;7.75;2.25;;;13.20;99.90;;;;;;5086836;28;20154;-87
2022/11/08 09:46:00;;;;;;;5.40;2.22;;;13.40;99.90;;;;;;5047109;28;20151;-89
2022/11/08 09:48:36;;;;;;;4.90;2.10;;;13.30;99.90;;;;;;5069235;28;20127;-88
2022/11/08 09:51:23;;;;;;;4.68;2.10;;;13.50;99.90;;;;;;5050856;28;20037;-87
2022/11/08 09:53:55;;;;;;;4.43;2.00;;;13.50;99.90;;;;;;5061441;28;20036;-92
2022/11/08 09:56:22;;;;;;;5.20;2.05;;;13.60;99.90;;;;;;5082547;28;20044;-93
2022/11/08 09:58:53;;;;;;;5.45;2.45;;;13.60;99.90;;;;;;5070794;28;20048;-92
2022/11/08 10:01:20;;;;;;;5.07;2.08;;;13.70;99.90;;;;;;5090788;28;20044;-92
2022/11/08 10:03:51;;;;;;;4.30;1.80;;;13.70;99.90;;;;;;5089009;28;20056;-93
2022/11/08 10:06:58;;;;;;;4.38;2.20;;;13.80;99.90;;;;;;5091227;28;20089;-92
2022/11/08 10:09:43;;;;;;;4.82;2.17;;;13.80;99.90;;;;;;5116753;27;20574;-92
2022/11/08 10:12:16;;;;;;;5.05;2.00;;;13.80;99.90;;;;;;5091786;28;20035;-93
2022/11/08 10:15:17;;;;;;;3.42;1.83;;;13.90;99.90;;;;;;5084589;28;20047;-93
2022/11/08 10:18:26;;;;;;;5.05;1.90;;;13.90;99.90;;;;;;5085437;28;20044;-92
2022/11/08 10:21:18;;;;;;;6.00;2.42;;;13.90;99.90;;;;;;5060032;28;20053;-79
2022/11/08 10:23:51;;;;;;;4.57;1.85;;;14.00;99.90;;;;;;5078069;28;20044;-87
2022/11/08 10:26:19;;;;;;;4.38;2.03;;;14.00;99.90;;;;;;5078457;28;20498;-86
2022/11/08 10:28:53;;;;;;;4.47;2.28;;;14.10;99.90;;;;;;5086645;28;20043;-86
2022/11/08 10:31:20;;;;;;;3.97;1.90;;;14.10;99.90;;;;;;5060463;28;20045;-84
2022/11/08 10:33:53;;;;;;;5.68;2.20;;;14.10;99.90;;;;;;5071064;28;20045;-84
2022/11/08 10:36:37;;;;;;;4.85;2.30;;;14.20;99.90;;;;;;5074406;28;20044;-82
2022/11/08 10:39:28;;;;;;;4.50;1.95;;;14.20;99.90;;;;;;5080848;28;20452;-86
2022/11/08 10:42:18;;;;;;;6.55;2.00;;;14.30;99.90;;;;;;5075356;28;20809;-80
2022/11/08 10:44:43;;;;;;;6.30;2.20;;;14.30;99.90;;;;;;5067700;28;20140;-79
2022/11/08 10:47:25;;;;;;;4.25;2.42;;;14.30;99.90;;;;;;5078481;28;20123;-80
2022/11/08 10:49:53;;;;;;;5.55;2.08;;;14.30;99.90;;;;;;5081653;28;20115;-81
2022/11/08 10:52:18;;;;;;;4.53;1.90;;;14.30;99.90;;;;;;5087636;28;20059;-81
2022/11/08 10:54:48;;;;;;;3.25;1.92;;;14.30;99.90;;;;;;5078088;28;20044;-80
2022/11/08 10:57:28;;;;;;;4.78;2.10;;;14.40;99.90;;;;;;5077781;28;20042;-81
2022/11/08 10:59:55;;;;;;;6.75;2.30;;;14.40;99.90;;;;;;5048478;28;20077;-81
2022/11/08 11:02:25;;;;;;;5.82;2.25;;;14.40;99.90;;;;;;5049505;28;20049;-81
2022/11/08 11:04:51;;;;;;;6.60;2.20;;;14.40;99.90;;;;;;5048144;28;20037;-81
2022/11/08 11:07:25;;;;;;;5.32;1.95;;;14.40;99.90;;;;;;5083097;28;20147;-82
2022/11/08 11:09:51;;;;;;;6.60;2.22;;;14.40;99.90;;;;;;5075169;28;20048;-79
2022/11/08 11:12:16;;;;;;;5.00;2.10;;;14.40;99.90;;;;;;5079249;28;20173;-79
2022/11/08 11:14:42;;;;;;;5.55;2.15;;;14.40;99.90;;;;;;5123142;27;20527;-76
2022/11/08 11:17:16;;;;;;;6.43;2.30;;;14.40;99.90;;;;;;5076385;28;20042;-78
2022/11/08 11:19:53;;;;;;;6.35;2.10;;;14.40;99.90;;;;;;5074681;28;20068;-88
2022/11/08 11:22:44;;;;;;;;;;;14.40;99.90;;;;;;5072200;28;20112;-86
2022/11/08 11:25:18;;;;;;;5.78;2.15;;;14.40;99.90;;;;;;5074661;28;19928;-89
2022/11/08 11:27:53;;;;;;;4.70;2.22;;;14.40;99.90;;;;;;5079963;28;20041;-84
2022/11/08 11:30:32;;;;;;;7.40;1.90;;;14.40;99.90;;;;;;5088141;28;20052;-89
2022/11/08 11:33:22;;;;;;;5.60;2.20;;;14.50;99.90;;;;;;5088288;28;20083;-86
2022/11/08 11:35:53;;;;;;;6.53;2.10;;;14.50;99.90;;;;;;5077929;28;20032;-83
2022/11/08 11:38:40;;;;;;;5.30;2.30;;;14.50;99.90;;;;;;5074166;28;20067;-78
2022/11/08 11:41:17;;;;;;;6.85;2.30;;;14.50;99.90;;;;;;5066654;28;20043;-77
2022/11/08 11:43:47;;;;;;;5.88;2.15;;;14.60;99.90;;;;;;5065971;28;20048;-78
2022/11/08 11:46:38;;;;;;;5.55;2.17;;;14.60;99.90;;;;;;5097584;27;20047;-78
2022/11/08 11:49:12;;;;;;;8.77;2.67;;;14.60;99.90;;;;;;5055720;28;20446;-82
2022/11/08 11:51:40;;;;;;;4.90;2.13;;;14.70;99.90;;;;;;5065300;28;20139;-78
2022/11/08 11:54:07;;;;;;;5.60;2.10;;;14.60;99.90;;;;;;5053653;28;20472;-77
2022/11/08 11:56:57;;;;;;;4.88;1.90;;;14.70;99.90;;;;;;5073029;28;20040;-77
2022/11/08 11:59:39;;;;;;;6.90;2.65;;;14.70;99.90;;;;;;5057090;28;20060;-76
2022/11/08 12:02:35;;;;;;;5.00;2.25;;;14.80;99.90;;;;;;5080472;28;20056;-79
2022/11/08 12:05:22;;;;;;;6.00;2.50;;;14.80;99.90;;;;;;5066114;28;20173;-80
2022/11/08 12:08:27;;;;;;;6.97;2.28;;;14.80;99.90;;;;;;5060118;28;20360;-85
2022/11/08 12:11:17;;;;;;;6.05;2.33;;;14.80;99.90;;;;;;5034249;28;20404;-81
2022/11/08 12:13:46;;;;;;;5.07;1.77;;;14.70;99.90;;;;;;5065241;28;20110;-80
2022/11/08 12:16:41;;;;;;;5.03;2.33;;;14.80;99.90;;;;;;5062301;28;20056;-82
2022/11/08 12:19:40;;;;;;;7.22;2.60;;;14.80;99.90;;;;;;5080070;28;20048;-82
2022/11/08 12:22:22;;;;;;;5.47;2.15;;;14.80;99.90;;;;;;5080935;28;20051;-82
2022/11/08 12:25:19;;;;;;;5.43;1.90;;;14.70;99.90;;;;;;5073261;28;20192;-85
2022/11/08 12:28:22;;;;;;;5.43;2.10;;;14.80;99.90;;;;;;5078624;28;20040;-84
2022/11/08 12:31:07;;;;;;;5.90;1.83;;;14.80;99.90;;;;;;5075246;28;20052;-84
2022/11/08 12:33:36;;;;;;;4.13;1.92;;;14.80;99.90;;;;;;5078656;28;20048;-81
2022/11/08 12:36:18;;;;;;;5.28;2.08;;;14.80;99.90;;;;;;5076329;28;20048;-80
2022/11/08 12:39:03;;;;;;;6.15;2.00;;;14.80;99.90;;;;;;5071958;28;20072;-79
2022/11/08 12:41:36;;;;;;;6.18;2.00;;;14.80;99.90;;;;;;5074399;28;20071;-85
2022/11/08 12:44:24;;;;;;;6.13;2.30;;;14.80;99.90;;;;;;5061449;28;20057;-78
2022/11/08 12:47:28;;;;;;;3.88;2.25;;;14.80;99.90;;;;;;5071757;28;20075;-85
2022/11/08 12:50:19;;;;;;;7.07;2.15;;;14.80;99.90;;;;;;5065506;28;20384;-82
2022/11/08 12:52:56;;;;;;;4.65;2.00;;;14.80;99.90;;;;;;5066820;28;20040;-83
2022/11/08 12:55:35;;;;;;;4.78;2.00;;;14.80;99.90;;;;;;5065962;28;20049;-86
2022/11/08 12:58:11;;;;;;;5.38;2.00;;;14.80;99.90;;;;;;5089955;28;20059;-83
2022/11/08 13:00:39;;;;;;;5.57;2.50;;;14.90;99.90;;;;;;5054635;28;20041;-84
2022/11/08 13:03:26;;;;;;;5.47;2.15;;;14.90;99.90;;;;;;5069291;28;20055;-90
2022/11/08 13:06:04;;;;;;;7.20;2.28;;;15.00;99.90;;;;;;5053245;28;20076;-86
2022/11/08 13:08:43;;;;;;;5.28;2.03;;;15.10;99.90;;;;;;5059436;28;20044;-86
2022/11/08 13:11:19;;;;;;;7.97;2.42;;;15.10;99.90;;;;;;5065474;28;20051;-85
2022/11/08 13:13:54;;;;;;;5.40;2.20;;;15.20;99.90;;;;;;5064124;28;20057;-85
2022/11/08 13:16:24;;;;;;;5.75;2.20;;;15.20;99.90;;;;;;5065846;28;20128;-85
2022/11/08 13:18:55;;;;;;;6.60;2.28;;;15.20;99.90;;;;;;5066093;28;20052;-85